sensor_id;sensor_type;location;lat;lon;timestamp;P1;durP1;ratioP1;P2;durP2;ratioP2
49103;SDS011;34915;52.926;11.116;2023-08-30T00:00:30;1.40;;;1.30;;
49103;SDS011;34915;52.926;11.116;2023-08-30T00:02:56;2.37;;;1.87;;
49103;SDS011;34915;52.926;11.116;2023-08-30T00:05:22;2.20;;;1.60;;
49103;SDS011;34915;52.926;11.116;2023-08-30T00:07:48;1.83;;;1.43;;
49103;SDS011;34915;52.926;11.116;2023-08-30T00:10:14;2.43;;;1.60;;
49103;SDS011;34915;52.926;11.116;2023-08-30T00:12:39;5.20;;;1.63;;
49103;SDS011;34915;52.926;11.116;2023-08-30T00:15:05;1.57;;;1.47;;
49103;SDS011;34915;52.926;11.116;2023-08-30T00:17:31;1.57;;;1.43;;
49103;SDS011;34915;52.926;11.116;2023-08-30T00:19:57;1.87;;;1.40;;
49103;SDS011;34915;52.926;11.116;2023-08-30T00:22:22;2.77;;;1.47;;
49103;SDS011;34915;52.926;11.116;2023-08-30T00:24:48;1.67;;;1.50;;
49103;SDS011;34915;52.926;11.116;2023-08-30T00:27:16;2.03;;;1.57;;
49103;SDS011;34915;52.926;11.116;2023-08-30T00:29:41;2.03;;;1.30;;
49103;SDS011;34915;52.926;11.116;2023-08-30T00:32:07;2.10;;;1.30;;
49103;SDS011;34915;52.926;11.116;2023-08-30T00:34:33;3.10;;;2.00;;
49103;SDS011;34915;52.926;11.116;2023-08-30T00:36:58;3.00;;;2.20;;
49103;SDS011;34915;52.926;11.116;2023-08-30T00:39:24;2.63;;;1.80;;
49103;SDS011;34915;52.926;11.116;2023-08-30T00:41:49;3.23;;;2.00;;
49103;SDS011;34915;52.926;11.116;2023-08-30T00:44:15;1.40;;;1.30;;
49103;SDS011;34915;52.926;11.116;2023-08-30T00:46:40;1.77;;;1.67;;
49103;SDS011;34915;52.926;11.116;2023-08-30T00:49:06;3.07;;;1.53;;
49103;SDS011;34915;52.926;11.116;2023-08-30T00:51:32;4.10;;;1.70;;
49103;SDS011;34915;52.926;11.116;2023-08-30T00:53:59;3.47;;;1.60;;
49103;SDS011;34915;52.926;11.116;2023-08-30T00:56:25;2.63;;;1.47;;
49103;SDS011;34915;52.926;11.116;2023-08-30T00:58:54;4.07;;;1.50;;
49103;SDS011;34915;52.926;11.116;2023-08-30T01:01:20;1.60;;;1.27;;
49103;SDS011;34915;52.926;11.116;2023-08-30T01:03:46;1.43;;;1.33;;
49103;SDS011;34915;52.926;11.116;2023-08-30T01:06:12;6.37;;;2.53;;
49103;SDS011;34915;52.926;11.116;2023-08-30T01:08:39;7.27;;;1.80;;
49103;SDS011;34915;52.926;11.116;2023-08-30T01:11:18;2.43;;;1.30;;
49103;SDS011;34915;52.926;11.116;2023-08-30T01:16:48;3.10;;;1.50;;
49103;SDS011;34915;52.926;11.116;2023-08-30T01:19:31;3.10;;;1.40;;
49103;SDS011;34915;52.926;11.116;2023-08-30T01:22:05;3.27;;;1.63;;
49103;SDS011;34915;52.926;11.116;2023-08-30T01:24:47;1.60;;;1.40;;
49103;SDS011;34915;52.926;11.116;2023-08-30T01:27:34;2.43;;;1.53;;
49103;SDS011;34915;52.926;11.116;2023-08-30T01:30:02;4.83;;;1.60;;
49103;SDS011;34915;52.926;11.116;2023-08-30T01:32:31;1.70;;;1.60;;
49103;SDS011;34915;52.926;11.116;2023-08-30T01:34:59;2.60;;;1.97;;
49103;SDS011;34915;52.926;11.116;2023-08-30T01:37:26;1.90;;;1.50;;
49103;SDS011;34915;52.926;11.116;2023-08-30T01:39:53;3.83;;;1.93;;
49103;SDS011;34915;52.926;11.116;2023-08-30T01:42:22;3.33;;;1.90;;
49103;SDS011;34915;52.926;11.116;2023-08-30T01:44:49;1.60;;;1.50;;
49103;SDS011;34915;52.926;11.116;2023-08-30T01:47:19;4.20;;;1.80;;
49103;SDS011;34915;52.926;11.116;2023-08-30T01:49:47;2.30;;;1.73;;
49103;SDS011;34915;52.926;11.116;2023-08-30T01:52:13;6.20;;;1.57;;
49103;SDS011;34915;52.926;11.116;2023-08-30T01:54:40;1.97;;;1.60;;
49103;SDS011;34915;52.926;11.116;2023-08-30T01:57:06;1.90;;;1.80;;
49103;SDS011;34915;52.926;11.116;2023-08-30T01:59:32;1.70;;;1.60;;
49103;SDS011;34915;52.926;11.116;2023-08-30T02:01:57;2.73;;;1.60;;
49103;SDS011;34915;52.926;11.116;2023-08-30T02:04:23;1.43;;;1.33;;
49103;SDS011;34915;52.926;11.116;2023-08-30T02:06:50;3.60;;;1.50;;
49103;SDS011;34915;52.926;11.116;2023-08-30T02:09:39;2.37;;;1.70;;
49103;SDS011;34915;52.926;11.116;2023-08-30T02:12:10;4.07;;;1.70;;
49103;SDS011;34915;52.926;11.116;2023-08-30T02:14:40;2.00;;;1.67;;
49103;SDS011;34915;52.926;11.116;2023-08-30T02:17:13;1.60;;;1.50;;
49103;SDS011;34915;52.926;11.116;2023-08-30T02:19:40;3.60;;;1.90;;
49103;SDS011;34915;52.926;11.116;2023-08-30T02:22:11;4.47;;;2.20;;
49103;SDS011;34915;52.926;11.116;2023-08-30T02:24:37;3.63;;;2.00;;
49103;SDS011;34915;52.926;11.116;2023-08-30T02:27:02;1.83;;;1.37;;
49103;SDS011;34915;52.926;11.116;2023-08-30T02:29:30;3.67;;;1.67;;
49103;SDS011;34915;52.926;11.116;2023-08-30T02:31:56;1.80;;;1.60;;
49103;SDS011;34915;52.926;11.116;2023-08-30T02:34:21;2.00;;;1.90;;
49103;SDS011;34915;52.926;11.116;2023-08-30T02:36:47;2.40;;;1.70;;
49103;SDS011;34915;52.926;11.116;2023-08-30T02:39:15;1.90;;;1.53;;
49103;SDS011;34915;52.926;11.116;2023-08-30T02:41:41;2.00;;;1.90;;
49103;SDS011;34915;52.926;11.116;2023-08-30T02:44:10;2.10;;;1.80;;
49103;SDS011;34915;52.926;11.116;2023-08-30T02:46:36;2.77;;;1.50;;
49103;SDS011;34915;52.926;11.116;2023-08-30T02:49:03;5.53;;;2.20;;
49103;SDS011;34915;52.926;11.116;2023-08-30T02:51:28;6.13;;;1.90;;
49103;SDS011;34915;52.926;11.116;2023-08-30T02:53:56;4.60;;;2.00;;
49103;SDS011;34915;52.926;11.116;2023-08-30T02:56:21;3.67;;;2.17;;
49103;SDS011;34915;52.926;11.116;2023-08-30T02:58:47;3.20;;;2.27;;
49103;SDS011;34915;52.926;11.116;2023-08-30T03:01:12;5.40;;;2.33;;
49103;SDS011;34915;52.926;11.116;2023-08-30T03:03:38;2.30;;;2.10;;
49103;SDS011;34915;52.926;11.116;2023-08-30T03:06:03;2.10;;;1.90;;
49103;SDS011;34915;52.926;11.116;2023-08-30T03:08:29;4.17;;;2.27;;
49103;SDS011;34915;52.926;11.116;2023-08-30T03:10:55;4.40;;;2.40;;
49103;SDS011;34915;52.926;11.116;2023-08-30T03:13:22;3.60;;;2.80;;
49103;SDS011;34915;52.926;11.116;2023-08-30T03:15:48;5.27;;;3.10;;
49103;SDS011;34915;52.926;11.116;2023-08-30T03:18:13;3.00;;;2.70;;
49103;SDS011;34915;52.926;11.116;2023-08-30T03:20:39;6.73;;;3.30;;
49103;SDS011;34915;52.926;11.116;2023-08-30T03:23:04;3.63;;;2.27;;
49103;SDS011;34915;52.926;11.116;2023-08-30T03:25:30;3.67;;;2.20;;
49103;SDS011;34915;52.926;11.116;2023-08-30T03:27:55;2.50;;;2.30;;
49103;SDS011;34915;52.926;11.116;2023-08-30T03:30:21;3.60;;;2.20;;
49103;SDS011;34915;52.926;11.116;2023-08-30T03:32:46;5.27;;;2.50;;
49103;SDS011;34915;52.926;11.116;2023-08-30T03:35:12;2.83;;;2.47;;
49103;SDS011;34915;52.926;11.116;2023-08-30T03:37:40;4.73;;;2.70;;
49103;SDS011;34915;52.926;11.116;2023-08-30T03:40:05;4.43;;;2.40;;
49103;SDS011;34915;52.926;11.116;2023-08-30T03:42:32;2.83;;;2.40;;
49103;SDS011;34915;52.926;11.116;2023-08-30T03:44:57;5.10;;;2.20;;
49103;SDS011;34915;52.926;11.116;2023-08-30T03:47:23;4.80;;;2.30;;
49103;SDS011;34915;52.926;11.116;2023-08-30T03:49:48;3.13;;;2.50;;
49103;SDS011;34915;52.926;11.116;2023-08-30T03:52:14;2.70;;;2.50;;
49103;SDS011;34915;52.926;11.116;2023-08-30T03:54:40;2.97;;;2.33;;
49103;SDS011;34915;52.926;11.116;2023-08-30T03:57:05;2.50;;;2.20;;
49103;SDS011;34915;52.926;11.116;2023-08-30T03:59:31;2.50;;;2.30;;
49103;SDS011;34915;52.926;11.116;2023-08-30T04:01:57;7.47;;;3.53;;
49103;SDS011;34915;52.926;11.116;2023-08-30T04:04:23;4.30;;;2.67;;
49103;SDS011;34915;52.926;11.116;2023-08-30T04:06:49;2.80;;;2.60;;
49103;SDS011;34915;52.926;11.116;2023-08-30T04:09:14;4.27;;;2.60;;
49103;SDS011;34915;52.926;11.116;2023-08-30T04:11:40;2.50;;;2.30;;
49103;SDS011;34915;52.926;11.116;2023-08-30T04:14:07;3.47;;;2.53;;
49103;SDS011;34915;52.926;11.116;2023-08-30T04:16:33;2.70;;;2.20;;
49103;SDS011;34915;52.926;11.116;2023-08-30T04:18:58;2.57;;;2.30;;
49103;SDS011;34915;52.926;11.116;2023-08-30T04:21:24;2.60;;;2.40;;
49103;SDS011;34915;52.926;11.116;2023-08-30T04:23:49;4.40;;;2.43;;
49103;SDS011;34915;52.926;11.116;2023-08-30T04:26:15;2.90;;;2.70;;
49103;SDS011;34915;52.926;11.116;2023-08-30T04:28:40;2.80;;;2.20;;
49103;SDS011;34915;52.926;11.116;2023-08-30T04:31:06;2.87;;;2.33;;
49103;SDS011;34915;52.926;11.116;2023-08-30T04:33:31;3.83;;;2.60;;
49103;SDS011;34915;52.926;11.116;2023-08-30T04:35:57;3.83;;;2.60;;
49103;SDS011;34915;52.926;11.116;2023-08-30T04:38:26;2.63;;;2.43;;
49103;SDS011;34915;52.926;11.116;2023-08-30T04:40:56;2.93;;;2.73;;
49103;SDS011;34915;52.926;11.116;2023-08-30T04:43:22;2.50;;;2.30;;
49103;SDS011;34915;52.926;11.116;2023-08-30T04:45:48;3.27;;;2.80;;
49103;SDS011;34915;52.926;11.116;2023-08-30T04:48:13;3.50;;;3.20;;
49103;SDS011;34915;52.926;11.116;2023-08-30T04:50:39;3.13;;;2.83;;
49103;SDS011;34915;52.926;11.116;2023-08-30T04:53:07;8.30;;;3.33;;
49103;SDS011;34915;52.926;11.116;2023-08-30T04:55:32;4.47;;;3.57;;
49103;SDS011;34915;52.926;11.116;2023-08-30T04:57:58;3.37;;;3.10;;
49103;SDS011;34915;52.926;11.116;2023-08-30T05:00:24;3.80;;;3.40;;
49103;SDS011;34915;52.926;11.116;2023-08-30T05:02:49;3.40;;;3.10;;
49103;SDS011;34915;52.926;11.116;2023-08-30T05:05:15;4.77;;;3.10;;
49103;SDS011;34915;52.926;11.116;2023-08-30T05:07:40;3.57;;;3.27;;
49103;SDS011;34915;52.926;11.116;2023-08-30T05:10:06;3.17;;;2.87;;
49103;SDS011;34915;52.926;11.116;2023-08-30T05:12:33;8.40;;;3.53;;
49103;SDS011;34915;52.926;11.116;2023-08-30T05:14:59;8.83;;;3.83;;
49103;SDS011;34915;52.926;11.116;2023-08-30T05:17:25;4.80;;;3.53;;
49103;SDS011;34915;52.926;11.116;2023-08-30T05:19:51;4.60;;;3.50;;
49103;SDS011;34915;52.926;11.116;2023-08-30T05:22:17;7.30;;;3.83;;
49103;SDS011;34915;52.926;11.116;2023-08-30T05:24:42;5.60;;;3.63;;
49103;SDS011;34915;52.926;11.116;2023-08-30T05:27:08;7.63;;;3.47;;
49103;SDS011;34915;52.926;11.116;2023-08-30T05:29:33;3.77;;;3.47;;
49103;SDS011;34915;52.926;11.116;2023-08-30T05:31:59;5.07;;;3.50;;
49103;SDS011;34915;52.926;11.116;2023-08-30T05:34:25;4.10;;;3.73;;
49103;SDS011;34915;52.926;11.116;2023-08-30T05:36:52;5.00;;;3.63;;
49103;SDS011;34915;52.926;11.116;2023-08-30T05:39:18;4.37;;;3.50;;
49103;SDS011;34915;52.926;11.116;2023-08-30T05:41:43;6.60;;;4.00;;
49103;SDS011;34915;52.926;11.116;2023-08-30T05:44:09;3.97;;;3.47;;
49103;SDS011;34915;52.926;11.116;2023-08-30T05:46:35;4.10;;;3.70;;
49103;SDS011;34915;52.926;11.116;2023-08-30T05:49:00;3.70;;;3.40;;
49103;SDS011;34915;52.926;11.116;2023-08-30T05:51:28;5.63;;;3.77;;
49103;SDS011;34915;52.926;11.116;2023-08-30T05:53:54;4.43;;;3.70;;
49103;SDS011;34915;52.926;11.116;2023-08-30T05:56:19;3.57;;;3.27;;
49103;SDS011;34915;52.926;11.116;2023-08-30T05:58:45;4.77;;;3.83;;
49103;SDS011;34915;52.926;11.116;2023-08-30T06:01:10;3.80;;;3.50;;
49103;SDS011;34915;52.926;11.116;2023-08-30T06:03:36;4.17;;;3.70;;
49103;SDS011;34915;52.926;11.116;2023-08-30T06:06:01;4.30;;;3.70;;
49103;SDS011;34915;52.926;11.116;2023-08-30T06:08:29;4.23;;;3.83;;
49103;SDS011;34915;52.926;11.116;2023-08-30T06:10:55;4.33;;;3.93;;
49103;SDS011;34915;52.926;11.116;2023-08-30T06:13:20;4.37;;;3.87;;
49103;SDS011;34915;52.926;11.116;2023-08-30T06:15:49;4.30;;;3.90;;
49103;SDS011;34915;52.926;11.116;2023-08-30T06:18:16;5.77;;;4.40;;
49103;SDS011;34915;52.926;11.116;2023-08-30T06:20:41;7.03;;;4.80;;
49103;SDS011;34915;52.926;11.116;2023-08-30T06:23:07;7.80;;;5.10;;
49103;SDS011;34915;52.926;11.116;2023-08-30T06:25:32;4.33;;;3.97;;
49103;SDS011;34915;52.926;11.116;2023-08-30T06:27:59;5.17;;;4.40;;
49103;SDS011;34915;52.926;11.116;2023-08-30T06:30:26;5.33;;;4.80;;
49103;SDS011;34915;52.926;11.116;2023-08-30T06:32:53;7.57;;;6.87;;
49103;SDS011;34915;52.926;11.116;2023-08-30T06:35:22;8.77;;;6.07;;
49103;SDS011;34915;52.926;11.116;2023-08-30T06:37:47;10.90;;;6.37;;
49103;SDS011;34915;52.926;11.116;2023-08-30T06:40:13;7.70;;;6.93;;
49103;SDS011;34915;52.926;11.116;2023-08-30T06:42:38;9.47;;;6.67;;
49103;SDS011;34915;52.926;11.116;2023-08-30T06:45:04;9.67;;;7.40;;
49103;SDS011;34915;52.926;11.116;2023-08-30T06:47:30;8.00;;;7.13;;
49103;SDS011;34915;52.926;11.116;2023-08-30T06:49:56;9.27;;;6.97;;
49103;SDS011;34915;52.926;11.116;2023-08-30T06:52:22;9.13;;;7.23;;
49103;SDS011;34915;52.926;11.116;2023-08-30T06:54:48;9.30;;;6.63;;
49103;SDS011;34915;52.926;11.116;2023-08-30T06:57:13;8.10;;;6.93;;
49103;SDS011;34915;52.926;11.116;2023-08-30T06:59:39;12.10;;;7.73;;
49103;SDS011;34915;52.926;11.116;2023-08-30T07:02:04;7.13;;;6.43;;
49103;SDS011;34915;52.926;11.116;2023-08-30T07:04:30;9.37;;;6.63;;
49103;SDS011;34915;52.926;11.116;2023-08-30T07:06:56;7.57;;;6.23;;
49103;SDS011;34915;52.926;11.116;2023-08-30T07:09:21;8.43;;;6.17;;
49103;SDS011;34915;52.926;11.116;2023-08-30T07:11:53;7.27;;;6.57;;
49103;SDS011;34915;52.926;11.116;2023-08-30T07:14:19;8.27;;;6.33;;
49103;SDS011;34915;52.926;11.116;2023-08-30T07:16:45;6.00;;;5.40;;
49103;SDS011;34915;52.926;11.116;2023-08-30T07:19:11;8.87;;;5.03;;
49103;SDS011;34915;52.926;11.116;2023-08-30T07:21:36;5.63;;;5.03;;
49103;SDS011;34915;52.926;11.116;2023-08-30T07:24:04;5.80;;;5.30;;
49103;SDS011;34915;52.926;11.116;2023-08-30T07:26:31;6.23;;;5.63;;
49103;SDS011;34915;52.926;11.116;2023-08-30T07:28:57;12.93;;;6.20;;
49103;SDS011;34915;52.926;11.116;2023-08-30T07:31:23;7.93;;;5.47;;
49103;SDS011;34915;52.926;11.116;2023-08-30T07:33:48;6.13;;;5.57;;
49103;SDS011;34915;52.926;11.116;2023-08-30T07:36:14;5.50;;;5.00;;
49103;SDS011;34915;52.926;11.116;2023-08-30T07:38:41;7.43;;;5.30;;
49103;SDS011;34915;52.926;11.116;2023-08-30T07:41:07;7.80;;;5.83;;
49103;SDS011;34915;52.926;11.116;2023-08-30T07:43:33;5.70;;;5.00;;
49103;SDS011;34915;52.926;11.116;2023-08-30T07:45:58;5.83;;;5.10;;
49103;SDS011;34915;52.926;11.116;2023-08-30T07:48:24;5.13;;;4.63;;
49103;SDS011;34915;52.926;11.116;2023-08-30T07:50:50;4.97;;;4.57;;
49103;SDS011;34915;52.926;11.116;2023-08-30T07:53:15;5.33;;;4.30;;
49103;SDS011;34915;52.926;11.116;2023-08-30T07:55:41;4.83;;;4.43;;
49103;SDS011;34915;52.926;11.116;2023-08-30T07:58:07;6.37;;;5.13;;
49103;SDS011;34915;52.926;11.116;2023-08-30T08:00:35;6.90;;;4.70;;
49103;SDS011;34915;52.926;11.116;2023-08-30T08:03:00;6.63;;;5.07;;
49103;SDS011;34915;52.926;11.116;2023-08-30T08:05:26;5.40;;;4.67;;
49103;SDS011;34915;52.926;11.116;2023-08-30T08:07:52;4.93;;;4.43;;
49103;SDS011;34915;52.926;11.116;2023-08-30T08:10:18;6.60;;;4.80;;
49103;SDS011;34915;52.926;11.116;2023-08-30T08:12:44;8.70;;;4.70;;
49103;SDS011;34915;52.926;11.116;2023-08-30T08:15:10;6.00;;;4.90;;
49103;SDS011;34915;52.926;11.116;2023-08-30T08:17:35;5.80;;;4.73;;
49103;SDS011;34915;52.926;11.116;2023-08-30T08:20:01;4.60;;;4.20;;
49103;SDS011;34915;52.926;11.116;2023-08-30T08:22:28;5.23;;;4.73;;
49103;SDS011;34915;52.926;11.116;2023-08-30T08:24:53;4.77;;;4.23;;
49103;SDS011;34915;52.926;11.116;2023-08-30T08:27:21;6.50;;;4.30;;
49103;SDS011;34915;52.926;11.116;2023-08-30T08:29:47;6.00;;;4.13;;
49103;SDS011;34915;52.926;11.116;2023-08-30T08:32:12;8.27;;;4.37;;
49103;SDS011;34915;52.926;11.116;2023-08-30T08:34:38;4.60;;;3.90;;
49103;SDS011;34915;52.926;11.116;2023-08-30T08:37:03;4.27;;;3.73;;
49103;SDS011;34915;52.926;11.116;2023-08-30T08:39:30;5.33;;;4.83;;
49103;SDS011;34915;52.926;11.116;2023-08-30T08:41:56;5.60;;;4.00;;
49103;SDS011;34915;52.926;11.116;2023-08-30T08:44:24;6.17;;;3.83;;
49103;SDS011;34915;52.926;11.116;2023-08-30T08:46:54;4.37;;;3.97;;
49103;SDS011;34915;52.926;11.116;2023-08-30T08:49:19;4.97;;;4.33;;
49103;SDS011;34915;52.926;11.116;2023-08-30T08:51:45;4.83;;;4.33;;
49103;SDS011;34915;52.926;11.116;2023-08-30T08:54:11;4.77;;;4.10;;
49103;SDS011;34915;52.926;11.116;2023-08-30T08:56:38;5.17;;;4.27;;
49103;SDS011;34915;52.926;11.116;2023-08-30T08:59:04;4.93;;;4.27;;
49103;SDS011;34915;52.926;11.116;2023-08-30T09:01:33;4.37;;;3.50;;
49103;SDS011;34915;52.926;11.116;2023-08-30T09:04:05;6.37;;;4.47;;
49103;SDS011;34915;52.926;11.116;2023-08-30T09:06:31;5.53;;;3.87;;
49103;SDS011;34915;52.926;11.116;2023-08-30T09:08:58;3.20;;;3.00;;
49103;SDS011;34915;52.926;11.116;2023-08-30T09:11:24;3.80;;;3.20;;
49103;SDS011;34915;52.926;11.116;2023-08-30T09:13:49;3.97;;;3.67;;
49103;SDS011;34915;52.926;11.116;2023-08-30T09:16:15;3.43;;;3.13;;
49103;SDS011;34915;52.926;11.116;2023-08-30T09:18:41;4.27;;;2.97;;
49103;SDS011;34915;52.926;11.116;2023-08-30T09:21:07;3.47;;;3.17;;
49103;SDS011;34915;52.926;11.116;2023-08-30T09:23:34;3.13;;;2.83;;
49103;SDS011;34915;52.926;11.116;2023-08-30T09:26:00;3.93;;;3.07;;
49103;SDS011;34915;52.926;11.116;2023-08-30T09:28:26;3.37;;;2.90;;
49103;SDS011;34915;52.926;11.116;2023-08-30T09:30:52;5.50;;;3.30;;
49103;SDS011;34915;52.926;11.116;2023-08-30T09:33:21;2.80;;;2.60;;
49103;SDS011;34915;52.926;11.116;2023-08-30T09:35:47;6.63;;;2.50;;
49103;SDS011;34915;52.926;11.116;2023-08-30T09:38:19;2.30;;;2.10;;
49103;SDS011;34915;52.926;11.116;2023-08-30T09:40:45;2.53;;;2.33;;
49103;SDS011;34915;52.926;11.116;2023-08-30T09:43:17;2.90;;;2.20;;
49103;SDS011;34915;52.926;11.116;2023-08-30T09:45:44;2.27;;;2.07;;
49103;SDS011;34915;52.926;11.116;2023-08-30T09:48:09;3.70;;;1.93;;
49103;SDS011;34915;52.926;11.116;2023-08-30T09:50:35;3.53;;;2.30;;
49103;SDS011;34915;52.926;11.116;2023-08-30T09:53:08;2.30;;;1.93;;
49103;SDS011;34915;52.926;11.116;2023-08-30T09:55:36;3.93;;;2.60;;
49103;SDS011;34915;52.926;11.116;2023-08-30T09:58:03;2.43;;;2.20;;
49103;SDS011;34915;52.926;11.116;2023-08-30T10:00:32;2.23;;;1.90;;
49103;SDS011;34915;52.926;11.116;2023-08-30T10:02:59;2.37;;;1.93;;
49103;SDS011;34915;52.926;11.116;2023-08-30T10:05:25;2.93;;;1.90;;
49103;SDS011;34915;52.926;11.116;2023-08-30T10:07:54;1.73;;;1.53;;
49103;SDS011;34915;52.926;11.116;2023-08-30T10:10:22;1.30;;;1.20;;
49103;SDS011;34915;52.926;11.116;2023-08-30T10:12:49;2.57;;;1.40;;
49103;SDS011;34915;52.926;11.116;2023-08-30T10:15:15;1.50;;;1.40;;
49103;SDS011;34915;52.926;11.116;2023-08-30T10:17:41;3.47;;;1.53;;
49103;SDS011;34915;52.926;11.116;2023-08-30T10:20:11;1.87;;;1.77;;
49103;SDS011;34915;52.926;11.116;2023-08-30T10:22:37;2.03;;;1.50;;
49103;SDS011;34915;52.926;11.116;2023-08-30T10:25:10;1.80;;;1.70;;
49103;SDS011;34915;52.926;11.116;2023-08-30T10:27:42;1.93;;;1.70;;
49103;SDS011;34915;52.926;11.116;2023-08-30T10:30:10;2.97;;;1.63;;
49103;SDS011;34915;52.926;11.116;2023-08-30T10:32:41;2.53;;;1.30;;
49103;SDS011;34915;52.926;11.116;2023-08-30T10:35:14;1.63;;;1.10;;
49103;SDS011;34915;52.926;11.116;2023-08-30T10:37:41;2.87;;;1.17;;
49103;SDS011;34915;52.926;11.116;2023-08-30T10:40:07;1.40;;;1.30;;
49103;SDS011;34915;52.926;11.116;2023-08-30T10:42:34;1.13;;;1.10;;
49103;SDS011;34915;52.926;11.116;2023-08-30T10:45:06;2.00;;;1.03;;
49103;SDS011;34915;52.926;11.116;2023-08-30T10:47:36;1.57;;;1.03;;
49103;SDS011;34915;52.926;11.116;2023-08-30T10:50:06;1.90;;;1.40;;
49103;SDS011;34915;52.926;11.116;2023-08-30T10:52:33;1.77;;;0.90;;
49103;SDS011;34915;52.926;11.116;2023-08-30T10:57:31;3.43;;;1.53;;
49103;SDS011;34915;52.926;11.116;2023-08-30T11:02:34;2.33;;;1.27;;
49103;SDS011;34915;52.926;11.116;2023-08-30T11:05:05;2.87;;;1.40;;
49103;SDS011;34915;52.926;11.116;2023-08-30T11:07:32;2.57;;;1.33;;
49103;SDS011;34915;52.926;11.116;2023-08-30T11:09:57;1.77;;;1.20;;
49103;SDS011;34915;52.926;11.116;2023-08-30T11:12:23;2.37;;;1.13;;
49103;SDS011;34915;52.926;11.116;2023-08-30T11:14:55;1.83;;;1.30;;
49103;SDS011;34915;52.926;11.116;2023-08-30T11:17:23;1.80;;;1.20;;
49103;SDS011;34915;52.926;11.116;2023-08-30T11:19:50;1.00;;;0.97;;
49103;SDS011;34915;52.926;11.116;2023-08-30T11:22:19;1.47;;;0.90;;
49103;SDS011;34915;52.926;11.116;2023-08-30T11:24:47;1.07;;;0.80;;
49103;SDS011;34915;52.926;11.116;2023-08-30T11:27:13;2.37;;;1.30;;
49103;SDS011;34915;52.926;11.116;2023-08-30T11:29:42;1.67;;;1.40;;
49103;SDS011;34915;52.926;11.116;2023-08-30T11:32:07;3.77;;;1.23;;
49103;SDS011;34915;52.926;11.116;2023-08-30T11:34:33;3.37;;;1.67;;
49103;SDS011;34915;52.926;11.116;2023-08-30T11:36:59;2.53;;;1.10;;
49103;SDS011;34915;52.926;11.116;2023-08-30T11:39:30;3.87;;;1.30;;
49103;SDS011;34915;52.926;11.116;2023-08-30T11:41:59;1.30;;;1.20;;
49103;SDS011;34915;52.926;11.116;2023-08-30T11:44:24;0.90;;;0.90;;
49103;SDS011;34915;52.926;11.116;2023-08-30T11:46:59;1.90;;;1.70;;
49103;SDS011;34915;52.926;11.116;2023-08-30T11:49:26;3.33;;;1.37;;
49103;SDS011;34915;52.926;11.116;2023-08-30T11:51:53;1.40;;;1.30;;
49103;SDS011;34915;52.926;11.116;2023-08-30T11:54:21;2.40;;;1.50;;
49103;SDS011;34915;52.926;11.116;2023-08-30T11:56:49;1.90;;;1.80;;
49103;SDS011;34915;52.926;11.116;2023-08-30T11:59:19;1.90;;;1.43;;
49103;SDS011;34915;52.926;11.116;2023-08-30T12:01:48;2.57;;;1.60;;
49103;SDS011;34915;52.926;11.116;2023-08-30T12:04:14;1.50;;;1.40;;
49103;SDS011;34915;52.926;11.116;2023-08-30T12:06:40;2.10;;;1.83;;
49103;SDS011;34915;52.926;11.116;2023-08-30T12:09:11;3.23;;;2.00;;
49103;SDS011;34915;52.926;11.116;2023-08-30T12:11:37;1.97;;;1.87;;
49103;SDS011;34915;52.926;11.116;2023-08-30T12:14:03;3.90;;;2.20;;
49103;SDS011;34915;52.926;11.116;2023-08-30T12:16:28;2.30;;;1.93;;
49103;SDS011;34915;52.926;11.116;2023-08-30T12:18:54;2.50;;;2.30;;
49103;SDS011;34915;52.926;11.116;2023-08-30T12:21:20;4.70;;;2.30;;
49103;SDS011;34915;52.926;11.116;2023-08-30T12:23:46;2.33;;;2.13;;
49103;SDS011;34915;52.926;11.116;2023-08-30T12:26:11;2.37;;;2.03;;
49103;SDS011;34915;52.926;11.116;2023-08-30T12:28:38;3.13;;;2.30;;
49103;SDS011;34915;52.926;11.116;2023-08-30T12:31:05;2.43;;;2.23;;
49103;SDS011;34915;52.926;11.116;2023-08-30T12:33:34;1.93;;;1.83;;
49103;SDS011;34915;52.926;11.116;2023-08-30T12:36:00;2.30;;;2.07;;
49103;SDS011;34915;52.926;11.116;2023-08-30T12:38:26;2.43;;;2.00;;
49103;SDS011;34915;52.926;11.116;2023-08-30T12:40:52;2.30;;;1.70;;
49103;SDS011;34915;52.926;11.116;2023-08-30T12:43:19;3.27;;;2.10;;
49103;SDS011;34915;52.926;11.116;2023-08-30T12:45:46;3.00;;;1.93;;
49103;SDS011;34915;52.926;11.116;2023-08-30T12:48:13;4.40;;;1.80;;
49103;SDS011;34915;52.926;11.116;2023-08-30T12:50:41;2.00;;;1.83;;
49103;SDS011;34915;52.926;11.116;2023-08-30T12:53:08;3.37;;;1.50;;
49103;SDS011;34915;52.926;11.116;2023-08-30T12:55:34;2.40;;;1.70;;
49103;SDS011;34915;52.926;11.116;2023-08-30T12:58:02;1.80;;;1.70;;
49103;SDS011;34915;52.926;11.116;2023-08-30T13:00:28;2.13;;;1.93;;
49103;SDS011;34915;52.926;11.116;2023-08-30T13:02:54;4.37;;;2.83;;
49103;SDS011;34915;52.926;11.116;2023-08-30T13:05:19;5.30;;;3.03;;
49103;SDS011;34915;52.926;11.116;2023-08-30T13:07:46;4.43;;;3.00;;
49103;SDS011;34915;52.926;11.116;2023-08-30T13:10:12;3.97;;;2.47;;
49103;SDS011;34915;52.926;11.116;2023-08-30T13:12:38;2.93;;;2.50;;
49103;SDS011;34915;52.926;11.116;2023-08-30T13:15:04;4.13;;;3.07;;
49103;SDS011;34915;52.926;11.116;2023-08-30T13:17:30;4.40;;;3.33;;
49103;SDS011;34915;52.926;11.116;2023-08-30T13:19:55;3.70;;;3.00;;
49103;SDS011;34915;52.926;11.116;2023-08-30T13:22:23;3.50;;;2.80;;
49103;SDS011;34915;52.926;11.116;2023-08-30T13:24:49;3.80;;;2.70;;
49103;SDS011;34915;52.926;11.116;2023-08-30T13:27:15;3.10;;;2.40;;
49103;SDS011;34915;52.926;11.116;2023-08-30T13:29:40;2.60;;;2.40;;
49103;SDS011;34915;52.926;11.116;2023-08-30T13:32:06;4.37;;;3.03;;
49103;SDS011;34915;52.926;11.116;2023-08-30T13:34:31;3.30;;;3.00;;
49103;SDS011;34915;52.926;11.116;2023-08-30T13:36:57;2.67;;;2.47;;
49103;SDS011;34915;52.926;11.116;2023-08-30T13:39:22;7.00;;;2.73;;
49103;SDS011;34915;52.926;11.116;2023-08-30T13:41:48;5.80;;;3.27;;
49103;SDS011;34915;52.926;11.116;2023-08-30T13:44:14;2.87;;;2.60;;
49103;SDS011;34915;52.926;11.116;2023-08-30T13:46:40;2.73;;;2.50;;
49103;SDS011;34915;52.926;11.116;2023-08-30T13:49:06;2.57;;;2.37;;
49103;SDS011;34915;52.926;11.116;2023-08-30T13:51:32;3.10;;;2.80;;
49103;SDS011;34915;52.926;11.116;2023-08-30T13:53:58;3.13;;;2.30;;
49103;SDS011;34915;52.926;11.116;2023-08-30T13:56:24;2.30;;;2.10;;
49103;SDS011;34915;52.926;11.116;2023-08-30T13:58:49;2.60;;;2.40;;
49103;SDS011;34915;52.926;11.116;2023-08-30T14:01:15;2.47;;;2.27;;
49103;SDS011;34915;52.926;11.116;2023-08-30T14:03:42;2.70;;;2.50;;
49103;SDS011;34915;52.926;11.116;2023-08-30T14:06:10;4.00;;;2.87;;
49103;SDS011;34915;52.926;11.116;2023-08-30T14:08:36;3.43;;;3.00;;
49103;SDS011;34915;52.926;11.116;2023-08-30T14:11:02;5.43;;;2.73;;
49103;SDS011;34915;52.926;11.116;2023-08-30T14:13:28;5.70;;;2.70;;
49103;SDS011;34915;52.926;11.116;2023-08-30T14:16:01;2.93;;;2.70;;
49103;SDS011;34915;52.926;11.116;2023-08-30T14:18:31;4.73;;;3.10;;
49103;SDS011;34915;52.926;11.116;2023-08-30T14:20:57;5.10;;;2.97;;
49103;SDS011;34915;52.926;11.116;2023-08-30T14:23:24;3.30;;;3.00;;
49103;SDS011;34915;52.926;11.116;2023-08-30T14:26:00;3.03;;;2.83;;
49103;SDS011;34915;52.926;11.116;2023-08-30T14:28:37;2.97;;;2.70;;
49103;SDS011;34915;52.926;11.116;2023-08-30T14:31:08;3.53;;;2.70;;
49103;SDS011;34915;52.926;11.116;2023-08-30T14:33:34;3.63;;;3.10;;
49103;SDS011;34915;52.926;11.116;2023-08-30T14:36:00;3.10;;;2.80;;
49103;SDS011;34915;52.926;11.116;2023-08-30T14:38:29;4.13;;;2.97;;